Knights Point, Vermont
Current Conditions -  °F | °C
As of 11:15 AM on Sunday 25 Jan 2015 (Local Time) from KFSO Reporting Station
Scattered Clouds Scattered Clouds  
Wind Chill: -3°   Ceiling: Unl
Heat Index: 10°   Visibility: 10mi
Dew Point: -3°   Wind: 8mph
Humidity: 58%   Direction: 300°WNW
Pressure: 29.79"   Gusts: 20mph
Location:  44.841°N, 73.2779°W
Report Text: KFSO 251615Z AUTO 30007G17KT 260V320 10SM SCT026 M12/M19 A2979 RMK AO2 T11251193
Loading
Personal Weather Stations






























Interactive Weather Map New forecast layout! Learn more

10-Day Weather Forecast

Advertisements
Track Severe Weather on mobile